createdAt,value
2022-12-01T00:02:56.375Z,2.03
2022-12-01T00:07:59.605Z,1.99
2022-12-01T00:13:04.573Z,2.00
2022-12-01T00:18:06.827Z,2.14
2022-12-01T00:23:09.208Z,1.88
2022-12-01T00:28:11.370Z,1.81
2022-12-01T00:33:13.503Z,1.94
2022-12-01T00:38:15.779Z,2.09
2022-12-01T00:43:18.219Z,2.01
2022-12-01T00:48:20.581Z,1.87
2022-12-01T00:53:23.638Z,2.17
2022-12-01T00:58:25.972Z,2.16
2022-12-01T01:03:32.705Z,2.15
2022-12-01T01:08:35.585Z,2.09
2022-12-01T01:13:38.368Z,2.14
2022-12-01T01:18:40.442Z,2.05
2022-12-01T01:23:42.943Z,2.09
2022-12-01T01:28:46.554Z,2.14
2022-12-01T01:33:48.964Z,2.03
2022-12-01T01:38:53.480Z,1.97
2022-12-01T01:44:04.729Z,1.94
2022-12-01T01:49:11.557Z,2.13
2022-12-01T01:54:25.293Z,2.12
2022-12-01T01:59:33.518Z,1.95
2022-12-01T02:04:45.587Z,1.95
2022-12-01T02:09:48.302Z,1.94
2022-12-01T02:20:41.465Z,1.92
2022-12-01T02:25:57.729Z,1.89
2022-12-01T02:31:15.199Z,1.93
2022-12-01T02:36:28.994Z,1.94
2022-12-01T02:41:39.593Z,1.86
2022-12-01T02:46:47.992Z,2.10
2022-12-01T02:51:52.781Z,2.18
2022-12-01T02:56:55.268Z,1.98
2022-12-01T03:02:14.822Z,1.96
2022-12-01T03:07:38.740Z,1.96
2022-12-01T03:12:56.451Z,1.96
2022-12-01T03:18:14.069Z,2.10
2022-12-01T03:23:21.489Z,1.70
2022-12-01T03:28:31.488Z,1.91
2022-12-01T03:33:40.544Z,1.83
2022-12-01T03:38:49.416Z,2.04
2022-12-01T03:44:11.717Z,1.81
2022-12-01T03:49:16.906Z,1.82
2022-12-01T03:54:21.956Z,1.87
2022-12-01T03:59:26.137Z,1.68
2022-12-01T04:04:28.365Z,1.53
2022-12-01T04:09:30.447Z,1.72
2022-12-01T04:14:32.623Z,1.77
2022-12-01T04:19:35.046Z,1.66
2022-12-01T04:24:37.355Z,1.63
2022-12-01T04:29:39.514Z,1.66
2022-12-01T04:34:41.632Z,1.81
2022-12-01T04:39:43.999Z,1.80
2022-12-01T04:44:46.266Z,1.75
2022-12-01T04:49:49.609Z,1.60
2022-12-01T04:54:51.998Z,1.67
2022-12-01T04:59:54.055Z,1.72
2022-12-01T05:04:56.300Z,1.79
2022-12-01T05:09:58.610Z,1.63
2022-12-01T05:15:00.680Z,1.83
2022-12-01T05:20:20.994Z,1.71
2022-12-01T05:25:23.371Z,1.74
2022-12-01T05:30:28.507Z,1.66
2022-12-01T05:35:33.869Z,1.57
2022-12-01T05:40:37.353Z,1.61
2022-12-01T05:45:39.726Z,1.63
2022-12-01T05:50:42.263Z,1.60
2022-12-01T05:55:55.415Z,1.78
2022-12-01T06:00:57.663Z,1.79
2022-12-01T06:05:59.996Z,1.81
2022-12-01T06:11:02.419Z,1.89
2022-12-01T06:16:06.822Z,1.87
2022-12-01T06:21:09.122Z,1.83
2022-12-01T06:26:11.419Z,1.75
2022-12-01T06:31:13.879Z,1.78
2022-12-01T06:36:16.031Z,1.57
2022-12-01T06:41:18.420Z,1.59
2022-12-01T06:46:20.830Z,1.63
2022-12-01T06:51:23.367Z,1.80
2022-12-01T06:56:26.011Z,1.69
2022-12-01T07:01:28.769Z,1.66
2022-12-01T07:06:32.034Z,1.99
2022-12-01T07:11:36.613Z,1.69
2022-12-01T07:16:38.673Z,1.44
2022-12-01T07:21:40.811Z,1.46
2022-12-01T07:26:43.860Z,1.71
2022-12-01T07:31:46.216Z,1.79
2022-12-01T07:36:48.532Z,1.70
2022-12-01T07:41:51.045Z,1.63
2022-12-01T07:46:53.101Z,1.63
2022-12-01T07:51:55.282Z,1.60
2022-12-01T07:56:57.482Z,1.78
2022-12-01T08:01:59.858Z,1.87
2022-12-01T08:07:02.088Z,1.94
2022-12-01T08:12:04.338Z,1.97
2022-12-01T08:17:06.615Z,2.10
2022-12-01T08:22:08.981Z,1.94
2022-12-01T08:27:11.346Z,1.79
2022-12-01T08:32:13.754Z,1.81
2022-12-01T08:37:16.258Z,1.68
2022-12-01T08:42:18.314Z,1.83
2022-12-01T08:47:20.434Z,1.67
2022-12-01T08:52:22.699Z,1.56
2022-12-01T08:57:24.988Z,1.72
2022-12-01T09:02:27.554Z,1.77
2022-12-01T09:07:30.315Z,1.65
2022-12-01T09:12:32.649Z,1.80
2022-12-01T09:17:34.772Z,1.91
2022-12-01T09:22:36.993Z,1.79
2022-12-01T09:27:39.034Z,1.61
2022-12-01T09:32:41.166Z,1.60
2022-12-01T09:37:44.528Z,1.50
2022-12-01T09:42:48.145Z,1.46
2022-12-01T09:47:57.626Z,1.31
2022-12-01T09:53:15.825Z,1.37
2022-12-01T09:58:22.655Z,1.38
2022-12-01T10:03:37.415Z,1.46
2022-12-01T10:08:49.492Z,1.45
2022-12-01T10:13:51.974Z,1.47
2022-12-01T10:19:13.743Z,1.66
2022-12-01T10:24:27.746Z,1.52
2022-12-01T10:30:00.125Z,1.56
2022-12-01T10:35:02.990Z,1.48
2022-12-01T10:40:13.763Z,1.69
2022-12-01T10:45:22.197Z,1.56
2022-12-01T10:50:28.592Z,1.75
2022-12-01T10:55:46.467Z,1.71
2022-12-01T11:01:03.739Z,1.65
2022-12-01T11:06:07.715Z,1.39
2022-12-01T11:11:38.091Z,1.46
2022-12-01T11:16:46.632Z,1.44
2022-12-01T11:21:52.481Z,1.54
2022-12-01T11:26:57.467Z,1.37
2022-12-01T11:32:01.124Z,1.39
2022-12-01T11:37:07.985Z,1.36
2022-12-01T11:42:29.724Z,1.40
2022-12-01T11:47:32.252Z,1.31
2022-12-01T11:52:45.378Z,1.39
2022-12-01T11:57:52.274Z,1.46
2022-12-01T12:03:09.725Z,1.56
2022-12-01T12:08:43.431Z,1.63
2022-12-01T12:14:00.871Z,1.62
2022-12-01T12:19:12.698Z,1.58
2022-12-01T12:24:27.273Z,1.50
2022-12-01T12:30:07.151Z,1.39
2022-12-01T12:35:24.704Z,1.38
2022-12-01T12:40:33.326Z,1.29
2022-12-01T12:45:54.664Z,1.47
2022-12-01T12:51:17.556Z,1.42
2022-12-01T12:56:24.911Z,1.43
2022-12-01T13:14:13.747Z,1.40
2022-12-01T13:19:27.467Z,1.43
2022-12-01T13:24:31.482Z,1.39
2022-12-01T13:29:46.851Z,1.19
2022-12-01T13:34:49.508Z,1.24
2022-12-01T13:40:07.729Z,1.40
2022-12-01T13:45:19.131Z,1.37
2022-12-01T13:50:36.706Z,1.32
2022-12-01T13:55:57.784Z,1.37
2022-12-01T14:01:22.286Z,1.33
2022-12-01T14:06:31.263Z,1.45
2022-12-01T14:11:38.955Z,1.29
2022-12-01T14:16:58.899Z,1.13
2022-12-01T14:22:02.731Z,1.06
2022-12-01T14:27:11.926Z,1.03
2022-12-01T14:32:17.299Z,1.19
2022-12-01T14:37:25.224Z,1.14
2022-12-01T14:42:46.817Z,1.07
2022-12-01T14:48:10.465Z,1.02
2022-12-01T14:53:17.639Z,0.92
2022-12-01T14:58:31.065Z,0.91
2022-12-01T15:03:49.259Z,1.12
2022-12-01T15:14:47.293Z,1.13
2022-12-01T15:19:49.974Z,1.30
2022-12-01T15:25:29.708Z,1.21
2022-12-01T15:30:50.950Z,0.79
2022-12-01T15:36:22.933Z,1.02
2022-12-01T15:41:31.320Z,1.28
2022-12-01T15:46:35.018Z,1.77
2022-12-01T15:51:45.046Z,1.76
2022-12-01T15:56:59.342Z,1.82
2022-12-01T16:02:22.958Z,1.97
2022-12-01T16:08:04.536Z,1.95
2022-12-01T16:12:54.092Z,1.70
2022-12-01T16:17:59.547Z,1.88
2022-12-01T16:23:09.663Z,1.94
2022-12-01T16:28:27.280Z,1.66
2022-12-01T16:33:29.857Z,1.82
2022-12-01T16:38:32.295Z,1.73
2022-12-01T16:43:34.769Z,1.56
2022-12-01T16:48:37.945Z,1.45
2022-12-01T16:53:40.291Z,1.35
2022-12-01T16:58:42.726Z,1.28
2022-12-01T17:03:45.445Z,1.19
2022-12-01T17:08:48.041Z,1.43
2022-12-01T17:13:50.255Z,1.44
2022-12-01T17:18:52.587Z,1.40
2022-12-01T17:23:54.744Z,1.22
2022-12-01T17:28:59.400Z,1.25
2022-12-01T17:34:01.556Z,1.31
2022-12-01T17:39:06.409Z,1.33
2022-12-01T17:44:08.830Z,1.23
2022-12-01T17:49:14.581Z,1.30
2022-12-01T17:54:16.812Z,1.25
2022-12-01T17:59:19.296Z,1.40
2022-12-01T18:04:21.459Z,1.38
2022-12-01T18:09:23.783Z,1.54
2022-12-01T18:14:26.897Z,1.53
2022-12-01T18:19:29.285Z,1.30
2022-12-01T18:24:31.421Z,1.42
2022-12-01T18:29:34.245Z,1.37
2022-12-01T18:34:36.540Z,1.31
2022-12-01T18:39:38.670Z,1.35
2022-12-01T18:44:42.612Z,1.22
2022-12-01T18:49:44.937Z,1.23
2022-12-01T18:54:47.268Z,1.19
2022-12-01T18:59:50.954Z,1.01
2022-12-01T19:04:54.224Z,1.18
2022-12-01T19:09:56.558Z,1.20
2022-12-01T19:15:00.630Z,1.11
2022-12-01T19:20:03.157Z,1.32
2022-12-01T19:25:07.949Z,1.33
2022-12-01T19:30:10.528Z,1.35
2022-12-01T19:35:13.026Z,1.29
2022-12-01T19:40:17.835Z,1.16
2022-12-01T19:45:20.222Z,1.26
2022-12-01T19:50:23.331Z,1.18
2022-12-01T19:55:28.142Z,1.18
2022-12-01T20:00:56.731Z,1.09
2022-12-01T20:06:23.381Z,1.22
2022-12-01T20:11:26.787Z,1.22
2022-12-01T20:16:30.817Z,1.07
2022-12-01T20:21:56.081Z,1.24
2022-12-01T20:26:58.307Z,1.09
2022-12-01T20:32:03.253Z,1.29
2022-12-01T20:37:05.919Z,1.26
2022-12-01T20:42:09.814Z,1.27
2022-12-01T20:47:12.026Z,1.21
2022-12-01T20:52:14.157Z,1.27
2022-12-01T20:57:16.364Z,1.28
2022-12-01T21:02:18.946Z,1.24
2022-12-01T21:07:24.063Z,1.27
2022-12-01T21:12:50.576Z,1.28
2022-12-01T21:18:03.814Z,1.30
2022-12-01T21:23:12.108Z,1.37
2022-12-01T21:28:25.709Z,1.26
2022-12-01T21:33:32.743Z,1.30
2022-12-01T21:38:35.075Z,1.20
2022-12-01T21:43:38.559Z,1.21
2022-12-01T21:48:43.004Z,1.24
2022-12-01T21:53:45.958Z,1.27
2022-12-01T21:58:50.307Z,1.19
2022-12-01T22:03:52.666Z,1.09
2022-12-01T22:09:00.302Z,1.15
2022-12-01T22:14:08.516Z,1.25
2022-12-01T22:19:16.628Z,1.21
2022-12-01T22:24:24.528Z,1.29
2022-12-01T22:29:35.417Z,1.17
2022-12-01T22:34:42.950Z,1.18
2022-12-01T22:39:47.702Z,1.16
2022-12-01T22:44:50.227Z,1.05
2022-12-01T22:49:52.565Z,1.08
2022-12-01T22:54:55.154Z,1.07
2022-12-01T22:59:58.152Z,1.26
2022-12-01T23:05:22.866Z,1.16
2022-12-01T23:10:29.803Z,1.35
2022-12-01T23:15:45.367Z,1.41
2022-12-01T23:20:53.609Z,1.23
2022-12-01T23:25:56.310Z,1.14
2022-12-01T23:30:59.891Z,1.28
2022-12-01T23:36:24.746Z,1.25
2022-12-01T23:41:53.179Z,1.30
2022-12-01T23:46:57.834Z,1.18
2022-12-01T23:52:02.604Z,1.19
2022-12-01T23:57:16.946Z,1.25
